Bakersfield, CA

12:52 AM PDT on September 22, 2014 (GMT -0700)
Tehachapi Municipal | Change Station
CLOSE
Current Station
Airport
Location: Tehachapi,
Elevation: 3999 ft
Nearby Weather Stations

Elev 3999 ft 35.13 °N, 118.44 °W | Updated 17 minutes ago

Clear
Clear
59 °F
Feels Like 59 °F
N
6
Wind Variable Wind from West

Today
High -- | Low -- °F
--% Chance of Precip.
Yesterday
High -- | Low -- °F
Precip. -- in
6:44 AM 6:52 PM
Waning Crescent, 3% visible
Pressure 30.13 in
Visibility 10.0 miles
Clouds Clear
Dew Point 48 °F
Humidity 67%
Rainfall 0.00 in
Snow Depth Not available.
UV 0 out of 12
Pollen 7.10 out of 12
PM2.5 Good
Flu Activity Not available.
METAR KTSP 220735Z AUTO 28005KT 10SM CLR 15/09 A3013 RMK AO2

More Conditions Fewer Conditions

Pressure 30.13 in
Visibility 10.0 miles
Clouds Clear
Dew Point 48 °F
Humidity 67%
Rainfall 0.00 in
Snow Depth Not available.
UV 0 out of 12
Pollen 7.10 out of 12
PM2.5 Good
Flu Activity Not available.
METAR KTSP 220735Z AUTO 28005KT 10SM CLR 15/09 A3013 RMK AO2

More Conditions Fewer Conditions

10-Day Weather Forecast

Almanac

Astronomy

Sep. 22, 2014 Rise Set
Actual Time 6:44 AM PDT 6:52 PM PDT
Civil Twilight 6:18 AM PDT 7:18 PM PDT
Nautical Twilight 5:49 AM PDT 7:47 PM PDT
Astronomical Twilight 5:18 AM PDT 8:17 PM PDT
Moon 5:19 AM PDT 6:01 PM PDT
Length of Visible Light 12h 59m
Length of Day
12h 08m
Tomorrow will be 2m 12s shorter.
Waning Crescent, 3% of the Moon is Illuminated
Today
Waning Crescent
Sep 24
New
Oct 1
First Quarter
Oct 8
Full
Oct 15
Last Quarter

Today's Extremes

State Highs State Lows

Community

WunderPhotos

Upload Photos

1,755,392 photos uploaded!

Nearby

Air Quality

  Air Quality AQ Index Pollutant
Yesterday Moderate
OZONE
Yesterday Moderate
PM2.5
Current Good
PM2.5
Sunday Moderate
OZONE
Monday Moderate
OZONE
Tuesday Moderate
OZONE
Wednesday Moderate
OZONE
Thursday Moderate
OZONE
Friday Moderate
OZONE

Snow Depth

Station Depth Elevation
Leavitt Lake 1 in 9400 ft
Forestdale Creek 0 in 8029 ft
Summit Meadow 1 in 9122 ft
Echo Peak 1 in 7800 ft
Spratt Creek 1 in 6200 ft

Earthquake Activity

City Distance Mag. Time & Date
Inyokern, California 79 miles 3.1 5:33 PM PDT
2014-09-19
Corcoran, California 59 miles 2.9 3:59 PM PDT
2014-09-18
Minimum magnitude displayed is 2.5.

Coastal Water Temperatures

Place Temperature
No Stations Reporting

Nearby Weather Stations